Wetterstation Vordersexau
Wetterdaten: November 2015
Datum Temp. A. Feuchte A. Luftdruck Regen Wind Richtung Taupunkt Windchill Windben
01.11.2015 6,6 C 87 % 1027,5 hPa 0,0 l/m 0,0 km/h NW 4,6 C 6,6 C 0,0 km/h
02.11.2015 6,7 C 86 % 1025,3 hPa 0,4 l/m 0,0 km/h SO 4,5 C 6,7 C 0,0 km/h
03.11.2015 5,3 C 87 % 1020,1 hPa 0,0 l/m 0,0 km/h SO 3,2 C 5,3 C 0,0 km/h
04.11.2015 9,8 C 80 % 1019,5 hPa 0,0 l/m 0,0 km/h NW 6,3 C 9,8 C 0,0 km/h
05.11.2015 13,8 C 76 % 1019,5 hPa 0,0 l/m 0,0 km/h O 9,1 C 13,8 C 0,0 km/h
06.11.2015 15,3 C 76 % 1022,2 hPa 0,0 l/m 0,0 km/h O-SO 10,9 C 15,3 C 0,0 km/h
07.11.2015 18,1 C 77 % 1024,5 hPa 0,0 l/m 0,0 km/h SO 13,7 C 18,1 C 0,0 km/h
08.11.2015 16,2 C 76 % 1025,3 hPa 0,0 l/m 0,0 km/h SO 11,4 C 16,2 C 0,0 km/h
09.11.2015 16,8 C 65 % 1025,7 hPa 0,0 l/m 11,2 km/h SW 10,1 C 14,7 C 6,2 km/h
10.11.2015 13,2 C 74 % 1026,1 hPa 0,0 l/m 2,2 km/h W 8,3 C 13,0 C 1,2 km/h
11.11.2015 4,0 C 68 % 1025,0 hPa 0,0 l/m 0,3 km/h O-SO -10,2 C 4,0 C 0,2 km/h
12.11.2015 9,2 C 77 % 1024,4 hPa 0,0 l/m 0,3 km/h SO 5,0 C 9,2 C 0,2 km/h
13.11.2015 9,2 C 81 % 1024,8 hPa 1,7 l/m 7,7 km/h W-SW 6,0 C 7,3 C 4,3 km/h
14.11.2015 9,6 C 75 % 1027,5 hPa 0,8 l/m 6,3 km/h N 5,2 C 7,8 C 3,5 km/h
15.11.2015 12,8 C 65 % 1019,7 hPa 0,0 l/m 14,8 km/h W-SW 6,3 C 9,3 C 8,2 km/h
16.11.2015 11,8 C 66 % 1016,9 hPa 0,0 l/m 10,2 km/h W 4,6 C 9,5 C 5,7 km/h
17.11.2015 13,8 C 75 % 1016,0 hPa 0,0 l/m 21,0 km/h SW 9,5 C 8,7 C 11,7 km/h
18.11.2015 15,4 C 69 % 1019,3 hPa 0,0 l/m 20,7 km/h W-SW 9,6 C 10,5 C 11,5 km/h
19.11.2015 14,8 C 73 % 1018,4 hPa 0,0 l/m 22,9 km/h W-SW 9,8 C 9,1 C 12,7 km/h
20.11.2015 11,3 C 84 % 1006,0 hPa 44,3 l/m 17,4 km/h S 8,6 C 7,1 C 9,6 km/h
21.11.2015 3,4 C 86 % 997,8 hPa 3,3 l/m 6,7 km/h SO 1,3 C 0,8 C 3,7 km/h
22.11.2015 2,2 C 87 % 1006,4 hPa 2,1 l/m 1,3 km/h O-SO 0,2 C 1,7 C 0,7 km/h
23.11.2015 2,5 C 81 % 1019,8 hPa 1,7 l/m 0,3 km/h W -0,6 C 2,5 C 0,2 km/h
24.11.2015 1,3 C 76 % 1019,5 hPa 0,0 l/m 3,6 km/h SO -2,6 C 0,1 C 2,0 km/h
25.11.2015 3,1 C 87 % 1007,7 hPa 8,7 l/m 3,2 km/h SO 1,2 C 2,2 C 1,8 km/h
26.11.2015 3,2 C 88 % 1013,5 hPa 2,5 l/m 0,0 km/h SO 1,4 C 3,2 C 0,0 km/h
27.11.2015 -0,6 C 87 % 1016,2 hPa 0,4 l/m 0,0 km/h O -2,5 C -0,6 C 0,0 km/h
28.11.2015 2,6 C 87 % 1016,1 hPa 1,7 l/m 5,4 km/h O 0,6 C 0,9 C 3,0 km/h
29.11.2015 7,5 C 80 % 1020,3 hPa 0,0 l/m 24,4 km/h SW 4,3 C -0,7 C 13,5 km/h
30.11.2015 10,4 C 81 % 1023,8 hPa 0,4 l/m 26,1 km/h W-SW 7,2 C 2,4 C 14,5 km/h
Min-Datum 24.11.15 11.11.15 21.11.15 12 Tage 01.11.15 - 11.11.15 21.11.15 01.11.15
Min-Zeit 07:42 12:42 12:42 - 00:42 - 12:42 22:42 00:42
Minimum -4,7 C 0 % 994,4 hPa - 0,0 km/h - -60,0 C -8,6 C 0,0 km/h
Max-Datum 07.11.15 03.11.15 14.11.15 20.11.15 15.11.15 - 07.11.15 07.11.15 15.11.15
Max-Zeit 15:42 12:42 09:42 17:42 09:42 - 10:42 15:42 09:42
Maximum 31,2 C 90 % 1030,1 hPa 44,3 l/m 50,5 km/h
W-SW
- 18,9 C 31,2 C 28,1 km/h
W-SW
Durchschnitt 9,0 C 79 % 1019,2 hPa #67,9 l/m 6,9 km/h W-SW 4,9 C 7,1 C 3,8 km/h

Durchschnitt Minimum Temp.4,4 C
Durchschnitt Maximum Temp.15,2 C
www.sexauwetter.de